Time;durP1;ratioP1;P1;durP2;ratioP2;P2;SDS_P1;SDS_P2;PMS_P1;PMS_P2;Temp;Humidity;BMP_temperature;BMP_pressure;BME280_temperature;BME280_humidity;BME280_pressure;Samples;Min_cycle;Max_cycle;Signal;HPM_P1;HPM_P2
2021/12/22 00:00:22;;;;;;;0.38;0.38;;;;;;;;;;1737187;28;20199;-72
2021/12/22 00:01:14;;;;;;;0.25;0.25;;;;;;;;;;1736803;28;20560;-72
2021/12/22 00:02:05;;;;;;;0.20;0.20;;;;;;;;;;1738786;28;20700;-72
2021/12/22 00:02:58;;;;;;;0.20;0.20;;;;;;;;;;1737493;28;20541;-72
2021/12/22 00:03:49;;;;;;;0.20;0.20;;;;;;;;;;1735722;28;20211;-72
2021/12/22 00:04:45;;;;;;;0.10;0.10;;;;;;;;;;1739187;28;20484;-72
2021/12/22 00:05:43;;;;;;;0.15;0.15;;;;;;;;;;1735129;28;20203;-71
2021/12/22 00:06:36;;;;;;;0.20;0.20;;;;;;;;;;1737866;28;20208;-71
2021/12/22 00:07:27;;;;;;;0.30;0.30;;;;;;;;;;1740261;28;20231;-71
2021/12/22 00:08:22;;;;;;;0.00;0.00;;;;;;;;;;1741267;28;20256;-71
2021/12/22 00:09:13;;;;;;;0.25;0.25;;;;;;;;;;1739945;28;20199;-71
2021/12/22 00:10:09;;;;;;;0.10;0.10;;;;;;;;;;1741482;28;20648;-71
2021/12/22 00:11:00;;;;;;;0.13;0.13;;;;;;;;;;1738946;28;20730;-71
2021/12/22 00:11:52;;;;;;;0.10;0.10;;;;;;;;;;1738443;28;20198;-71
2021/12/22 00:12:43;;;;;;;0.10;0.10;;;;;;;;;;1739898;28;20206;-71
2021/12/22 00:13:35;;;;;;;0.10;0.10;;;;;;;;;;1741611;28;20211;-71
2021/12/22 00:14:27;;;;;;;0.20;0.20;;;;;;;;;;1740069;28;20203;-71
2021/12/22 00:15:19;;;;;;;0.00;0.00;;;;;;;;;;1741521;28;20467;-71
2021/12/22 00:16:10;;;;;;;0.20;0.20;;;;;;;;;;1739903;28;20289;-72
2021/12/22 00:17:02;;;;;;;0.10;0.10;;;;;;;;;;1739671;28;20230;-72
2021/12/22 00:17:53;;;;;;;0.03;0.03;;;;;;;;;;1740822;28;20632;-72
2021/12/22 00:18:46;;;;;;;0.20;0.20;;;;;;;;;;1740059;28;20217;-72
2021/12/22 00:19:37;;;;;;;0.10;0.10;;;;;;;;;;1741041;28;20837;-72
2021/12/22 00:20:29;;;;;;;0.15;0.15;;;;;;;;;;1739730;28;20624;-72
2021/12/22 00:21:20;;;;;;;0.25;0.25;;;;;;;;;;1741241;28;20217;-72
2021/12/22 00:22:12;;;;;;;0.30;0.30;;;;;;;;;;1739819;28;20201;-72
2021/12/22 00:23:04;;;;;;;0.10;0.10;;;;;;;;;;1740827;28;20207;-72
2021/12/22 00:23:57;;;;;;;0.20;0.20;;;;;;;;;;1740244;28;20202;-72
2021/12/22 00:24:49;;;;;;;0.25;0.25;;;;;;;;;;1740832;28;20206;-71
2021/12/22 00:25:41;;;;;;;0.25;0.25;;;;;;;;;;1739711;28;20292;-72
2021/12/22 00:26:33;;;;;;;0.17;0.17;;;;;;;;;;1741213;28;20667;-72
2021/12/22 00:27:25;;;;;;;0.10;0.10;;;;;;;;;;1739840;28;20489;-72
2021/12/22 00:28:16;;;;;;;0.10;0.10;;;;;;;;;;1740332;28;20221;-72
2021/12/22 00:29:09;;;;;;;0.20;0.20;;;;;;;;;;1739205;28;20382;-72
2021/12/22 00:30:00;;;;;;;0.20;0.20;;;;;;;;;;1741289;28;20217;-71
2021/12/22 00:30:52;;;;;;;0.10;0.10;;;;;;;;;;1739541;28;20254;-71
2021/12/22 00:31:56;;;;;;;0.10;0.10;;;;;;;;;;1741037;28;20218;-71
2021/12/22 00:32:52;;;;;;;0.20;0.20;;;;;;;;;;1740513;28;20282;-71
2021/12/22 00:33:48;;;;;;;0.20;0.20;;;;;;;;;;1740320;28;20548;-71
2021/12/22 00:34:46;;;;;;;0.10;0.10;;;;;;;;;;1740049;28;20194;-71
2021/12/22 00:35:40;;;;;;;0.10;0.10;;;;;;;;;;1737009;28;20210;-71
2021/12/22 00:36:32;;;;;;;0.20;0.20;;;;;;;;;;1741261;28;20249;-71
2021/12/22 00:37:25;;;;;;;0.08;0.08;;;;;;;;;;1738267;28;20667;-71
2021/12/22 00:38:18;;;;;;;0.10;0.10;;;;;;;;;;1737354;28;20229;-71
2021/12/22 00:39:11;;;;;;;0.20;0.20;;;;;;;;;;1739856;28;20660;-71
2021/12/22 00:40:04;;;;;;;0.20;0.20;;;;;;;;;;1740690;28;20199;-71
2021/12/22 00:40:55;;;;;;;0.20;0.20;;;;;;;;;;1738980;28;20238;-71
2021/12/22 00:41:49;;;;;;;0.22;0.22;;;;;;;;;;1737742;28;20200;-71
2021/12/22 00:42:40;;;;;;;0.20;0.20;;;;;;;;;;1739715;28;20309;-71
2021/12/22 00:43:32;;;;;;;0.10;0.10;;;;;;;;;;1740928;28;20240;-71
2021/12/22 00:44:25;;;;;;;0.10;0.10;;;;;;;;;;1739720;28;20464;-71
2021/12/22 00:45:23;;;;;;;0.30;0.30;;;;;;;;;;1741311;28;20208;-71
2021/12/22 00:46:14;;;;;;;0.10;0.10;;;;;;;;;;1739364;28;20226;-72
2021/12/22 00:47:08;;;;;;;0.10;0.10;;;;;;;;;;1734604;28;20235;-72
2021/12/22 00:47:59;;;;;;;0.10;0.10;;;;;;;;;;1737030;28;20487;-71
2021/12/22 00:48:52;;;;;;;0.10;0.10;;;;;;;;;;1739829;28;20645;-71
2021/12/22 00:49:43;;;;;;;0.13;0.13;;;;;;;;;;1740727;28;20649;-72
2021/12/22 00:50:36;;;;;;;0.10;0.10;;;;;;;;;;1739453;28;20225;-71
2021/12/22 00:51:27;;;;;;;0.38;0.38;;;;;;;;;;1740252;28;20217;-71
2021/12/22 00:52:19;;;;;;;0.20;0.20;;;;;;;;;;1739005;28;20676;-71
2021/12/22 00:53:10;;;;;;;0.30;0.30;;;;;;;;;;1740917;28;20199;-71
2021/12/22 00:54:02;;;;;;;0.20;0.20;;;;;;;;;;1739780;28;20628;-71
2021/12/22 00:54:55;;;;;;;0.10;0.10;;;;;;;;;;1740092;28;20200;-71
2021/12/22 00:55:48;;;;;;;0.10;0.10;;;;;;;;;;1738325;28;20230;-71
2021/12/22 00:56:39;;;;;;;0.20;0.20;;;;;;;;;;1740922;28;20238;-71
2021/12/22 00:57:33;;;;;;;0.20;0.20;;;;;;;;;;1739204;28;20198;-71
2021/12/22 00:58:24;;;;;;;0.20;0.20;;;;;;;;;;1736639;28;20299;-71
2021/12/22 00:59:20;;;;;;;0.30;0.30;;;;;;;;;;1739696;28;20518;-71
2021/12/22 01:00:12;;;;;;;0.20;0.20;;;;;;;;;;1737218;28;20564;-71
2021/12/22 01:01:05;;;;;;;0.20;0.20;;;;;;;;;;1734073;28;20607;-71
2021/12/22 01:01:56;;;;;;;0.10;0.10;;;;;;;;;;1740661;28;20210;-72
2021/12/22 01:02:48;;;;;;;0.20;0.20;;;;;;;;;;1739799;28;20200;-72
2021/12/22 01:03:40;;;;;;;0.10;0.10;;;;;;;;;;1739543;28;20279;-72
2021/12/22 01:04:32;;;;;;;0.20;0.20;;;;;;;;;;1739937;28;20207;-72
2021/12/22 01:05:24;;;;;;;0.15;0.15;;;;;;;;;;1739283;28;20211;-71
2021/12/22 01:06:16;;;;;;;0.10;0.10;;;;;;;;;;1740748;28;20205;-71
2021/12/22 01:07:08;;;;;;;0.20;0.20;;;;;;;;;;1739468;28;20213;-71
2021/12/22 01:08:00;;;;;;;0.20;0.20;;;;;;;;;;1740261;28;20202;-71
2021/12/22 01:08:52;;;;;;;0.40;0.40;;;;;;;;;;1739483;28;20257;-71
2021/12/22 01:09:44;;;;;;;0.10;0.10;;;;;;;;;;1739946;28;20202;-71
2021/12/22 01:10:37;;;;;;;0.13;0.13;;;;;;;;;;1738912;28;20213;-71
2021/12/22 01:11:29;;;;;;;0.10;0.10;;;;;;;;;;1740487;28;20214;-71
2021/12/22 01:12:20;;;;;;;0.30;0.30;;;;;;;;;;1739689;28;20524;-71
2021/12/22 01:13:13;;;;;;;0.20;0.20;;;;;;;;;;1740468;28;20536;-71
2021/12/22 01:14:04;;;;;;;0.20;0.20;;;;;;;;;;1739779;28;20203;-71
2021/12/22 01:14:56;;;;;;;0.20;0.20;;;;;;;;;;1739685;28;20216;-71
2021/12/22 01:15:47;;;;;;;0.20;0.20;;;;;;;;;;1738207;28;20503;-72
2021/12/22 01:16:40;;;;;;;0.20;0.20;;;;;;;;;;1740560;28;20226;-72
2021/12/22 01:17:38;;;;;;;0.10;0.10;;;;;;;;;;1739246;28;20314;-72
2021/12/22 01:18:32;;;;;;;0.20;0.20;;;;;;;;;;1740431;28;20621;-72
2021/12/22 01:19:31;;;;;;;0.20;0.20;;;;;;;;;;1739205;28;20656;-72
2021/12/22 01:20:28;;;;;;;0.10;0.10;;;;;;;;;;1739753;28;20201;-71
2021/12/22 01:21:24;;;;;;;0.20;0.20;;;;;;;;;;1740010;28;20302;-71
2021/12/22 01:22:27;;;;;;;0.25;0.25;;;;;;;;;;1738963;28;20605;-71
2021/12/22 01:23:20;;;;;;;0.15;0.15;;;;;;;;;;1740518;28;20207;-71
2021/12/22 01:24:20;;;;;;;0.25;0.25;;;;;;;;;;1739525;28;20293;-71
2021/12/22 01:25:14;;;;;;;0.20;0.20;;;;;;;;;;1740877;28;20205;-73
2021/12/22 01:26:08;;;;;;;0.13;0.13;;;;;;;;;;1738662;28;20288;-74
2021/12/22 01:27:05;;;;;;;0.00;0.00;;;;;;;;;;1738868;28;20296;-74
2021/12/22 01:27:58;;;;;;;0.10;0.10;;;;;;;;;;1739516;28;20281;-74
2021/12/22 01:28:49;;;;;;;0.13;0.13;;;;;;;;;;1739219;28;20293;-74
2021/12/22 01:29:41;;;;;;;0.20;0.20;;;;;;;;;;1740565;28;20211;-74
2021/12/22 01:30:33;;;;;;;0.10;0.10;;;;;;;;;;1739182;28;20657;-74
2021/12/22 01:31:25;;;;;;;0.10;0.10;;;;;;;;;;1740556;28;20245;-73
2021/12/22 01:32:17;;;;;;;0.20;0.20;;;;;;;;;;1735129;28;20219;-73
2021/12/22 01:33:09;;;;;;;0.10;0.10;;;;;;;;;;1739456;28;20252;-73
2021/12/22 01:34:01;;;;;;;0.30;0.30;;;;;;;;;;1738677;28;20202;-73
2021/12/22 01:34:53;;;;;;;0.10;0.10;;;;;;;;;;1740358;28;20217;-73
2021/12/22 01:35:45;;;;;;;0.10;0.10;;;;;;;;;;1738979;28;20560;-74
2021/12/22 01:36:37;;;;;;;0.20;0.20;;;;;;;;;;1740250;28;20304;-74
2021/12/22 01:37:28;;;;;;;0.20;0.20;;;;;;;;;;1738651;28;20207;-75
2021/12/22 01:38:20;;;;;;;0.15;0.15;;;;;;;;;;1739885;28;20234;-74
2021/12/22 01:39:12;;;;;;;0.10;0.10;;;;;;;;;;1739327;28;20708;-75
2021/12/22 01:40:06;;;;;;;0.20;0.20;;;;;;;;;;1739701;28;20226;-75
2021/12/22 01:40:57;;;;;;;0.20;0.20;;;;;;;;;;1738549;28;20226;-72
2021/12/22 01:41:51;;;;;;;0.50;0.50;;;;;;;;;;1740163;28;20268;-71
2021/12/22 01:42:43;;;;;;;0.20;0.20;;;;;;;;;;1739504;28;20862;-71
2021/12/22 01:43:35;;;;;;;0.10;0.10;;;;;;;;;;1740182;28;20234;-71
2021/12/22 01:44:28;;;;;;;0.10;0.10;;;;;;;;;;1739352;28;20202;-71
2021/12/22 01:45:48;;;;;;;0.10;0.10;;;;;;;;;;1740359;28;20229;-71
2021/12/22 01:49:10;;;;;;;0.25;0.25;;;;;;;;;;1734902;28;20217;-71
2021/12/22 01:50:08;;;;;;;0.10;0.10;;;;;;;;;;1739825;28;20207;-71
2021/12/22 01:51:04;;;;;;;0.10;0.10;;;;;;;;;;1738557;28;20223;-71
2021/12/22 01:51:57;;;;;;;0.15;0.15;;;;;;;;;;1739564;28;20195;-71
2021/12/22 01:52:48;;;;;;;0.10;0.10;;;;;;;;;;1739248;28;20211;-71
2021/12/22 01:53:42;;;;;;;0.10;0.10;;;;;;;;;;1740063;28;20707;-71
2021/12/22 01:54:34;;;;;;;0.13;0.13;;;;;;;;;;1739148;28;20630;-71
2021/12/22 01:55:33;;;;;;;0.20;0.20;;;;;;;;;;1738522;28;20209;-72
2021/12/22 01:56:27;;;;;;;0.17;0.17;;;;;;;;;;1739190;28;20544;-72
2021/12/22 01:57:21;;;;;;;0.30;0.30;;;;;;;;;;1737328;28;20285;-72
2021/12/22 01:58:12;;;;;;;0.30;0.30;;;;;;;;;;1736041;28;20560;-72
2021/12/22 01:59:06;;;;;;;0.10;0.10;;;;;;;;;;1738789;28;20231;-72
2021/12/22 02:00:00;;;;;;;0.00;0.00;;;;;;;;;;1736857;28;20661;-72
2021/12/22 02:00:52;;;;;;;0.05;0.05;;;;;;;;;;1733175;28;20592;-71
2021/12/22 02:01:44;;;;;;;0.20;0.20;;;;;;;;;;1737209;28;20660;-70
2021/12/22 02:02:36;;;;;;;0.10;0.10;;;;;;;;;;1738989;28;20620;-71
2021/12/22 02:03:27;;;;;;;0.20;0.20;;;;;;;;;;1740477;28;20218;-71
2021/12/22 02:04:20;;;;;;;0.20;0.20;;;;;;;;;;1738617;28;20727;-71
2021/12/22 02:05:11;;;;;;;0.10;0.10;;;;;;;;;;1740510;28;20198;-71
2021/12/22 02:06:05;;;;;;;0.10;0.10;;;;;;;;;;1738337;28;20230;-72
2021/12/22 02:06:56;;;;;;;0.20;0.20;;;;;;;;;;1737680;28;20274;-72
2021/12/22 02:07:49;;;;;;;0.10;0.10;;;;;;;;;;1739311;28;20643;-72
2021/12/22 02:08:43;;;;;;;0.10;0.10;;;;;;;;;;1739386;28;20213;-72
2021/12/22 02:09:55;;;;;;;0.20;0.20;;;;;;;;;;1740107;28;20234;-72
2021/12/22 02:10:47;;;;;;;0.10;0.10;;;;;;;;;;1737347;28;20596;-71
2021/12/22 02:11:40;;;;;;;0.17;0.17;;;;;;;;;;1736599;28;20203;-71
2021/12/22 02:12:38;;;;;;;0.20;0.20;;;;;;;;;;1739067;28;20547;-71
2021/12/22 02:13:34;;;;;;;0.10;0.10;;;;;;;;;;1736981;28;20206;-71
2021/12/22 02:14:25;;;;;;;0.08;0.08;;;;;;;;;;1739151;28;20524;-71
2021/12/22 02:15:17;;;;;;;0.20;0.20;;;;;;;;;;1740363;28;20630;-71
2021/12/22 02:16:12;;;;;;;0.13;0.13;;;;;;;;;;1738184;28;20258;-72
2021/12/22 02:17:07;;;;;;;0.10;0.10;;;;;;;;;;1739131;28;20226;-72
2021/12/22 02:18:02;;;;;;;0.10;0.10;;;;;;;;;;1739944;28;20362;-72
2021/12/22 02:18:54;;;;;;;0.10;0.10;;;;;;;;;;1734552;28;20571;-72
2021/12/22 02:19:47;;;;;;;0.00;0.00;;;;;;;;;;1738901;28;20206;-72
2021/12/22 02:20:40;;;;;;;0.10;0.10;;;;;;;;;;1737189;28;20253;-71
2021/12/22 02:21:35;;;;;;;0.08;0.08;;;;;;;;;;1740079;28;20210;-71
2021/12/22 02:22:28;;;;;;;0.20;0.20;;;;;;;;;;1738442;28;20551;-71
2021/12/22 02:23:19;;;;;;;0.10;0.10;;;;;;;;;;1740445;28;20199;-71
2021/12/22 02:24:12;;;;;;;0.20;0.20;;;;;;;;;;1738993;28;20230;-71
2021/12/22 02:25:11;;;;;;;0.10;0.10;;;;;;;;;;1740427;28;20614;-71
2021/12/22 02:26:10;;;;;;;0.17;0.17;;;;;;;;;;1737856;28;20681;-71
2021/12/22 02:27:06;;;;;;;0.30;0.30;;;;;;;;;;1739086;28;20202;-71
2021/12/22 02:27:59;;;;;;;0.20;0.20;;;;;;;;;;1739511;28;20230;-71
2021/12/22 02:28:58;;;;;;;0.10;0.10;;;;;;;;;;1733666;28;20203;-71
2021/12/22 02:29:57;;;;;;;0.20;0.20;;;;;;;;;;1717971;28;20236;-71
2021/12/22 02:30:48;;;;;;;0.10;0.10;;;;;;;;;;1718595;28;20895;-71
2021/12/22 02:31:44;;;;;;;0.10;0.10;;;;;;;;;;1717804;28;20209;-71
2021/12/22 02:33:46;;;;;;;0.20;0.20;;;;;;;;;;1706369;28;20203;-71
2021/12/22 02:34:42;;;;;;;0.15;0.15;;;;;;;;;;1721627;28;20212;-71
2021/12/22 02:35:45;;;;;;;0.10;0.10;;;;;;;;;;1724656;28;20234;-71
2021/12/22 02:36:39;;;;;;;0.20;0.20;;;;;;;;;;1720571;28;20493;-72
2021/12/22 02:37:41;;;;;;;0.10;0.10;;;;;;;;;;1721659;28;20208;-72
2021/12/22 02:38:33;;;;;;;0.20;0.20;;;;;;;;;;1724639;28;20208;-72
2021/12/22 02:39:25;;;;;;;0.20;0.20;;;;;;;;;;1721232;28;20201;-72
2021/12/22 02:40:19;;;;;;;0.20;0.20;;;;;;;;;;1724878;28;20204;-72
2021/12/22 02:41:13;;;;;;;0.50;0.50;;;;;;;;;;1724203;28;20232;-72
2021/12/22 02:42:09;;;;;;;0.17;0.17;;;;;;;;;;1716171;28;20350;-72
2021/12/22 02:43:05;;;;;;;0.10;0.10;;;;;;;;;;1715940;28;20204;-71
2021/12/22 02:43:58;;;;;;;0.20;0.20;;;;;;;;;;1718701;28;20394;-71
2021/12/22 02:44:49;;;;;;;0.22;0.22;;;;;;;;;;1723427;28;20646;-72
2021/12/22 02:45:42;;;;;;;0.15;0.15;;;;;;;;;;1725058;28;20258;-72
2021/12/22 02:46:35;;;;;;;0.15;0.15;;;;;;;;;;1720633;28;20208;-72
2021/12/22 02:47:28;;;;;;;0.08;0.08;;;;;;;;;;1718571;28;20225;-72
2021/12/22 02:48:19;;;;;;;0.08;0.08;;;;;;;;;;1724182;28;20211;-72
2021/12/22 02:49:11;;;;;;;0.20;0.20;;;;;;;;;;1725108;28;20255;-72
2021/12/22 02:50:03;;;;;;;0.10;0.10;;;;;;;;;;1723863;28;20203;-72
2021/12/22 02:50:58;;;;;;;0.10;0.10;;;;;;;;;;1724984;28;20339;-71
2021/12/22 02:51:49;;;;;;;0.17;0.17;;;;;;;;;;1718787;28;20278;-71
2021/12/22 02:52:51;;;;;;;0.03;0.03;;;;;;;;;;1722269;28;20200;-71
2021/12/22 02:53:48;;;;;;;0.10;0.10;;;;;;;;;;1725318;28;20623;-71
2021/12/22 02:54:46;;;;;;;0.10;0.10;;;;;;;;;;1724838;28;20207;-71
2021/12/22 02:55:47;;;;;;;0.10;0.10;;;;;;;;;;1723293;28;20236;-72
2021/12/22 02:56:52;;;;;;;0.20;0.20;;;;;;;;;;1724423;28;20208;-72
2021/12/22 02:57:46;;;;;;;0.20;0.20;;;;;;;;;;1719719;28;20208;-72
2021/12/22 02:58:46;;;;;;;0.20;0.20;;;;;;;;;;1723980;28;20204;-71
2021/12/22 02:59:50;;;;;;;0.00;0.00;;;;;;;;;;1724983;28;20708;-71
2021/12/22 03:01:06;;;;;;;0.20;0.20;;;;;;;;;;1718791;28;20582;-71
2021/12/22 03:03:10;;;;;;;0.20;0.20;;;;;;;;;;1723937;28;20219;-71
2021/12/22 03:04:06;;;;;;;0.10;0.10;;;;;;;;;;1723385;28;20196;-71
2021/12/22 03:04:58;;;;;;;0.00;0.00;;;;;;;;;;1723291;28;20227;-71
2021/12/22 03:05:49;;;;;;;0.10;0.10;;;;;;;;;;1724781;28;20250;-71
2021/12/22 03:06:51;;;;;;;0.20;0.20;;;;;;;;;;1726268;28;20538;-70
2021/12/22 03:07:42;;;;;;;0.30;0.30;;;;;;;;;;1724936;28;20204;-70
2021/12/22 03:08:34;;;;;;;0.20;0.20;;;;;;;;;;1724605;28;20212;-70
2021/12/22 03:09:26;;;;;;;0.10;0.10;;;;;;;;;;1724613;28;20542;-70
2021/12/22 03:10:19;;;;;;;0.30;0.30;;;;;;;;;;1725138;28;20707;-70
2021/12/22 03:11:10;;;;;;;0.10;0.10;;;;;;;;;;1724140;28;20732;-71
2021/12/22 03:12:05;;;;;;;0.10;0.10;;;;;;;;;;1717536;28;20208;-71
2021/12/22 03:13:01;;;;;;;0.10;0.10;;;;;;;;;;1724826;28;20650;-71
2021/12/22 03:13:54;;;;;;;0.20;0.20;;;;;;;;;;1725136;28;20200;-71
2021/12/22 03:14:45;;;;;;;0.10;0.10;;;;;;;;;;1724623;28;20208;-71
2021/12/22 03:15:37;;;;;;;0.10;0.10;;;;;;;;;;1724895;28;20208;-71
2021/12/22 03:16:28;;;;;;;0.10;0.10;;;;;;;;;;1721725;28;20646;-71
2021/12/22 03:17:21;;;;;;;0.13;0.13;;;;;;;;;;1715526;28;20225;-71
2021/12/22 03:18:12;;;;;;;0.20;0.20;;;;;;;;;;1717854;28;20642;-71
2021/12/22 03:19:04;;;;;;;0.15;0.15;;;;;;;;;;1720334;28;20232;-71
2021/12/22 03:19:55;;;;;;;0.10;0.10;;;;;;;;;;1717622;28;20649;-71
2021/12/22 03:20:55;;;;;;;0.00;0.00;;;;;;;;;;1723614;28;20232;-71
2021/12/22 03:21:49;;;;;;;0.15;0.15;;;;;;;;;;1718808;28;20205;-71
2021/12/22 03:22:42;;;;;;;0.35;0.35;;;;;;;;;;1715519;28;20221;-71
2021/12/22 03:23:33;;;;;;;0.10;0.10;;;;;;;;;;1721719;28;20216;-71
2021/12/22 03:24:26;;;;;;;0.10;0.10;;;;;;;;;;1725176;28;20270;-71
2021/12/22 03:25:21;;;;;;;0.20;0.20;;;;;;;;;;1724867;28;20204;-71
2021/12/22 03:26:14;;;;;;;0.17;0.17;;;;;;;;;;1724176;28;20539;-71
2021/12/22 03:27:07;;;;;;;0.10;0.10;;;;;;;;;;1725032;28;20642;-71
2021/12/22 03:28:03;;;;;;;0.20;0.20;;;;;;;;;;1724040;28;20211;-71
2021/12/22 03:28:55;;;;;;;0.10;0.10;;;;;;;;;;1725270;28;20204;-71
2021/12/22 03:29:47;;;;;;;0.10;0.10;;;;;;;;;;1739888;28;20600;-71
2021/12/22 03:30:39;;;;;;;0.32;0.32;;;;;;;;;;1735613;28;20199;-71
2021/12/22 03:31:30;;;;;;;0.10;0.10;;;;;;;;;;1740113;28;20252;-70
2021/12/22 03:32:22;;;;;;;0.10;0.10;;;;;;;;;;1739012;28;20261;-70
2021/12/22 03:33:14;;;;;;;0.20;0.20;;;;;;;;;;1739852;28;20554;-70
2021/12/22 03:34:06;;;;;;;0.10;0.10;;;;;;;;;;1738887;28;20648;-70
2021/12/22 03:34:58;;;;;;;0.10;0.10;;;;;;;;;;1739175;28;20964;-70
2021/12/22 03:35:50;;;;;;;0.20;0.20;;;;;;;;;;1738538;28;20583;-70
2021/12/22 03:36:43;;;;;;;0.20;0.20;;;;;;;;;;1739746;28;20265;-70
2021/12/22 03:37:35;;;;;;;0.00;0.00;;;;;;;;;;1738644;28;20246;-70
2021/12/22 03:38:29;;;;;;;0.20;0.20;;;;;;;;;;1739910;28;20209;-70
2021/12/22 03:39:21;;;;;;;0.15;0.15;;;;;;;;;;1735964;28;20215;-70
2021/12/22 03:40:13;;;;;;;0.20;0.20;;;;;;;;;;1741489;28;20199;-70
2021/12/22 03:41:05;;;;;;;0.20;0.20;;;;;;;;;;1738542;28;20234;-70
2021/12/22 03:41:58;;;;;;;0.20;0.20;;;;;;;;;;1740658;28;20209;-70
2021/12/22 03:42:49;;;;;;;0.15;0.15;;;;;;;;;;1740110;28;20210;-70
2021/12/22 03:43:41;;;;;;;0.10;0.10;;;;;;;;;;1738891;28;20210;-70
2021/12/22 03:44:32;;;;;;;0.10;0.10;;;;;;;;;;1737283;28;20210;-70
2021/12/22 03:45:25;;;;;;;0.10;0.10;;;;;;;;;;1739833;28;20206;-72
2021/12/22 03:46:16;;;;;;;0.20;0.20;;;;;;;;;;1740671;28;20206;-72
2021/12/22 03:47:08;;;;;;;0.20;0.20;;;;;;;;;;1737055;28;20203;-72
2021/12/22 03:48:00;;;;;;;0.17;0.17;;;;;;;;;;1737627;28;20217;-71
2021/12/22 03:48:52;;;;;;;0.20;0.20;;;;;;;;;;1739880;28;20203;-71
2021/12/22 03:49:43;;;;;;;0.20;0.20;;;;;;;;;;1741029;28;20211;-71
2021/12/22 03:50:35;;;;;;;0.10;0.10;;;;;;;;;;1739911;28;20268;-71
2021/12/22 03:51:27;;;;;;;0.10;0.10;;;;;;;;;;1740972;28;20232;-71
2021/12/22 03:52:19;;;;;;;0.15;0.15;;;;;;;;;;1735378;28;20451;-72
2021/12/22 03:53:12;;;;;;;0.20;0.20;;;;;;;;;;1739363;28;20221;-71
2021/12/22 03:54:04;;;;;;;0.10;0.10;;;;;;;;;;1735364;28;20235;-71
2021/12/22 03:54:58;;;;;;;0.30;0.30;;;;;;;;;;1740251;28;20240;-71
2021/12/22 03:55:50;;;;;;;0.05;0.05;;;;;;;;;;1738390;28;20668;-71
2021/12/22 03:56:41;;;;;;;0.20;0.20;;;;;;;;;;1740753;28;20260;-71
2021/12/22 03:57:34;;;;;;;0.10;0.10;;;;;;;;;;1738981;28;20237;-71
2021/12/22 03:58:25;;;;;;;0.10;0.10;;;;;;;;;;1734971;28;20203;-71
2021/12/22 03:59:17;;;;;;;0.10;0.10;;;;;;;;;;1733805;28;20270;-71
2021/12/22 04:00:11;;;;;;;0.15;0.15;;;;;;;;;;1740116;28;20202;-71
2021/12/22 04:01:03;;;;;;;0.03;0.03;;;;;;;;;;1734220;28;20627;-71
2021/12/22 04:01:54;;;;;;;0.10;0.10;;;;;;;;;;1740915;28;20726;-71
2021/12/22 04:02:46;;;;;;;0.10;0.10;;;;;;;;;;1739947;28;20233;-71
2021/12/22 04:03:39;;;;;;;0.20;0.20;;;;;;;;;;1740120;28;20210;-71
2021/12/22 04:04:32;;;;;;;0.20;0.20;;;;;;;;;;1739929;28;20198;-71
2021/12/22 04:05:23;;;;;;;0.28;0.28;;;;;;;;;;1739765;28;20211;-71
2021/12/22 04:06:15;;;;;;;0.00;0.00;;;;;;;;;;1740602;28;20203;-71
2021/12/22 04:07:07;;;;;;;0.10;0.10;;;;;;;;;;1737393;28;20491;-71
2021/12/22 04:07:59;;;;;;;0.13;0.13;;;;;;;;;;1737190;28;20249;-71
2021/12/22 04:08:52;;;;;;;0.20;0.20;;;;;;;;;;1738938;28;20210;-71
2021/12/22 04:09:44;;;;;;;0.20;0.20;;;;;;;;;;1740596;28;20240;-71
2021/12/22 04:10:35;;;;;;;0.10;0.10;;;;;;;;;;1739123;28;20207;-72
2021/12/22 04:11:27;;;;;;;0.00;0.00;;;;;;;;;;1740690;28;20542;-72
2021/12/22 04:12:18;;;;;;;0.00;0.00;;;;;;;;;;1739700;28;20203;-72
2021/12/22 04:13:14;;;;;;;0.20;0.20;;;;;;;;;;1740722;28;20206;-72
2021/12/22 04:14:05;;;;;;;0.13;0.13;;;;;;;;;;1738177;28;20207;-72
2021/12/22 04:14:57;;;;;;;0.00;0.00;;;;;;;;;;1740654;28;20259;-72
2021/12/22 04:15:49;;;;;;;0.10;0.10;;;;;;;;;;1739656;28;20238;-72
2021/12/22 04:16:41;;;;;;;0.20;0.20;;;;;;;;;;1740099;28;20268;-72
2021/12/22 04:17:32;;;;;;;0.10;0.10;;;;;;;;;;1739872;28;20884;-72
2021/12/22 04:18:24;;;;;;;0.10;0.10;;;;;;;;;;1740471;28;20510;-72
2021/12/22 04:19:15;;;;;;;0.10;0.10;;;;;;;;;;1739975;28;20257;-72
2021/12/22 04:20:11;;;;;;;0.10;0.10;;;;;;;;;;1741088;28;20202;-72
2021/12/22 04:21:02;;;;;;;0.17;0.17;;;;;;;;;;1739249;28;20230;-71
2021/12/22 04:21:54;;;;;;;0.17;0.17;;;;;;;;;;1740413;28;20225;-71
2021/12/22 04:22:46;;;;;;;0.10;0.10;;;;;;;;;;1734593;28;20219;-71
2021/12/22 04:23:38;;;;;;;0.00;0.00;;;;;;;;;;1739514;28;20214;-71
2021/12/22 04:24:31;;;;;;;0.13;0.13;;;;;;;;;;1735915;28;20668;-71
2021/12/22 04:25:24;;;;;;;0.00;0.00;;;;;;;;;;1740278;28;20203;-72
2021/12/22 04:26:15;;;;;;;0.17;0.17;;;;;;;;;;1740480;28;20245;-72
2021/12/22 04:27:08;;;;;;;0.10;0.10;;;;;;;;;;1737046;28;20532;-72
2021/12/22 04:28:03;;;;;;;0.05;0.05;;;;;;;;;;1737880;28;20260;-72
2021/12/22 04:28:55;;;;;;;0.15;0.15;;;;;;;;;;1738102;28;20236;-71
2021/12/22 04:29:47;;;;;;;0.15;0.15;;;;;;;;;;1740497;28;20492;-72
2021/12/22 04:30:40;;;;;;;0.05;0.05;;;;;;;;;;1732636;28;20589;-72
2021/12/22 04:31:31;;;;;;;0.20;0.20;;;;;;;;;;1739793;28;20209;-72
2021/12/22 04:32:23;;;;;;;0.08;0.08;;;;;;;;;;1735324;28;20649;-72
2021/12/22 04:33:15;;;;;;;0.30;0.30;;;;;;;;;;1740117;28;20210;-72
2021/12/22 04:34:08;;;;;;;0.10;0.10;;;;;;;;;;1740079;28;20624;-72
2021/12/22 04:34:59;;;;;;;0.15;0.15;;;;;;;;;;1739581;28;20872;-72
2021/12/22 04:35:52;;;;;;;0.20;0.20;;;;;;;;;;1739432;28;20242;-72
2021/12/22 04:36:44;;;;;;;0.10;0.10;;;;;;;;;;1737931;28;20583;-71
2021/12/22 04:37:35;;;;;;;0.20;0.20;;;;;;;;;;1739194;28;20249;-71
2021/12/22 04:38:28;;;;;;;0.10;0.10;;;;;;;;;;1737706;28;20218;-71
2021/12/22 04:39:19;;;;;;;0.10;0.10;;;;;;;;;;1733964;28;20207;-71
2021/12/22 04:40:13;;;;;;;0.10;0.10;;;;;;;;;;1741016;28;20225;-71
2021/12/22 04:41:04;;;;;;;0.10;0.10;;;;;;;;;;1738148;28;20299;-72
2021/12/22 04:41:57;;;;;;;0.10;0.10;;;;;;;;;;1739320;28;20388;-72
2021/12/22 04:42:48;;;;;;;0.10;0.10;;;;;;;;;;1735721;28;20225;-72
2021/12/22 04:43:40;;;;;;;0.20;0.20;;;;;;;;;;1738562;28;20199;-72
2021/12/22 04:44:32;;;;;;;0.10;0.10;;;;;;;;;;1736538;28;20261;-72
2021/12/22 04:45:24;;;;;;;0.20;0.20;;;;;;;;;;1740011;28;20195;-72
2021/12/22 04:46:15;;;;;;;0.10;0.10;;;;;;;;;;1740317;28;20313;-72
2021/12/22 04:47:07;;;;;;;0.15;0.15;;;;;;;;;;1736878;28;20199;-72
2021/12/22 04:47:59;;;;;;;0.10;0.10;;;;;;;;;;1737340;28;20264;-72
2021/12/22 04:48:51;;;;;;;0.20;0.20;;;;;;;;;;1736614;28;20207;-72
2021/12/22 04:49:42;;;;;;;0.10;0.10;;;;;;;;;;1738187;28;20207;-72
2021/12/22 04:50:35;;;;;;;0.10;0.10;;;;;;;;;;1735650;28;20322;-71
2021/12/22 04:51:29;;;;;;;0.10;0.10;;;;;;;;;;1739216;28;20202;-71
2021/12/22 04:52:23;;;;;;;0.13;0.13;;;;;;;;;;1735096;28;20203;-71
2021/12/22 04:53:20;;;;;;;0.20;0.20;;;;;;;;;;1739371;28;20515;-71
2021/12/22 04:54:18;;;;;;;0.13;0.13;;;;;;;;;;1739629;28;20651;-71
2021/12/22 04:55:10;;;;;;;0.10;0.10;;;;;;;;;;1740586;28;20195;-71
2021/12/22 04:56:03;;;;;;;0.10;0.10;;;;;;;;;;1737235;28;20653;-72
2021/12/22 04:56:54;;;;;;;0.17;0.17;;;;;;;;;;1739381;28;20483;-72
2021/12/22 04:57:47;;;;;;;0.10;0.10;;;;;;;;;;1739190;28;20625;-72
2021/12/22 04:58:38;;;;;;;0.10;0.10;;;;;;;;;;1737306;28;20199;-72
2021/12/22 04:59:30;;;;;;;0.20;0.20;;;;;;;;;;1738955;28;20322;-72
2021/12/22 05:00:21;;;;;;;0.10;0.10;;;;;;;;;;1737389;28;20203;-72
2021/12/22 05:01:13;;;;;;;0.10;0.10;;;;;;;;;;1736151;28;20227;-71
2021/12/22 05:02:05;;;;;;;0.10;0.10;;;;;;;;;;1739429;28;20203;-71
2021/12/22 05:02:57;;;;;;;0.08;0.08;;;;;;;;;;1740463;28;20233;-71
2021/12/22 05:03:48;;;;;;;0.03;0.03;;;;;;;;;;1740181;28;20549;-71
2021/12/22 05:04:41;;;;;;;0.15;0.15;;;;;;;;;;1740111;28;20723;-71
2021/12/22 05:05:32;;;;;;;0.10;0.10;;;;;;;;;;1738090;28;20232;-71
2021/12/22 05:06:24;;;;;;;0.10;0.10;;;;;;;;;;1740487;28;20221;-71
2021/12/22 05:07:16;;;;;;;0.00;0.00;;;;;;;;;;1737294;28;20211;-71
2021/12/22 05:08:08;;;;;;;0.20;0.20;;;;;;;;;;1739792;28;20209;-70
2021/12/22 05:08:59;;;;;;;0.25;0.25;;;;;;;;;;1735280;28;20204;-70
2021/12/22 05:09:51;;;;;;;0.28;0.28;;;;;;;;;;1739295;28;20213;-70
2021/12/22 05:10:43;;;;;;;0.10;0.10;;;;;;;;;;1738797;28;20230;-70
2021/12/22 05:11:37;;;;;;;0.10;0.10;;;;;;;;;;1739812;28;20206;-70
2021/12/22 05:12:28;;;;;;;0.30;0.30;;;;;;;;;;1739298;28;20203;-70
2021/12/22 05:13:20;;;;;;;0.10;0.10;;;;;;;;;;1740281;28;20203;-70
2021/12/22 05:14:11;;;;;;;0.20;0.20;;;;;;;;;;1739441;28;20207;-70
2021/12/22 05:15:04;;;;;;;0.08;0.08;;;;;;;;;;1740386;28;20249;-70
2021/12/22 05:15:55;;;;;;;0.10;0.10;;;;;;;;;;1739043;28;20238;-70
2021/12/22 05:16:52;;;;;;;0.10;0.10;;;;;;;;;;1739666;28;20203;-70
2021/12/22 05:18:58;;;;;;;0.20;0.20;;;;;;;;;;1738746;28;20218;-71
2021/12/22 05:19:49;;;;;;;0.13;0.13;;;;;;;;;;1740280;28;20202;-71
2021/12/22 05:20:41;;;;;;;0.13;0.13;;;;;;;;;;1739090;28;20668;-71
2021/12/22 05:21:34;;;;;;;0.25;0.25;;;;;;;;;;1740322;28;20221;-72
2021/12/22 05:22:27;;;;;;;0.20;0.20;;;;;;;;;;1734384;28;20222;-72
2021/12/22 05:23:20;;;;;;;0.20;0.20;;;;;;;;;;1736412;28;20194;-71
2021/12/22 05:24:11;;;;;;;0.17;0.17;;;;;;;;;;1739504;28;20218;-71
2021/12/22 05:25:03;;;;;;;0.10;0.10;;;;;;;;;;1740275;28;20272;-71